sensor_id;sensor_type;location;lat;lon;timestamp;P1;durP1;ratioP1;P2;durP2;ratioP2
40997;SDS011;26740;45.944;12.480;2022-12-04T00:02:21;0.73;;;0.32;;
40997;SDS011;26740;45.944;12.480;2022-12-04T00:04:47;0.90;;;0.60;;
40997;SDS011;26740;45.944;12.480;2022-12-04T00:07:13;0.70;;;0.30;;
40997;SDS011;26740;45.944;12.480;2022-12-04T00:09:39;1.17;;;0.30;;
40997;SDS011;26740;45.944;12.480;2022-12-04T00:12:05;1.40;;;0.68;;
40997;SDS011;26740;45.944;12.480;2022-12-04T00:14:30;1.90;;;0.63;;
40997;SDS011;26740;45.944;12.480;2022-12-04T00:16:56;1.33;;;0.40;;
40997;SDS011;26740;45.944;12.480;2022-12-04T00:19:22;1.10;;;0.68;;
40997;SDS011;26740;45.944;12.480;2022-12-04T00:21:48;2.47;;;0.25;;
40997;SDS011;26740;45.944;12.480;2022-12-04T00:24:15;1.50;;;0.77;;
40997;SDS011;26740;45.944;12.480;2022-12-04T00:29:06;0.70;;;0.40;;
40997;SDS011;26740;45.944;12.480;2022-12-04T00:31:31;0.65;;;0.32;;
40997;SDS011;26740;45.944;12.480;2022-12-04T00:33:58;1.58;;;0.50;;
40997;SDS011;26740;45.944;12.480;2022-12-04T00:36:25;1.25;;;0.60;;
40997;SDS011;26740;45.944;12.480;2022-12-04T00:38:53;2.28;;;0.82;;
40997;SDS011;26740;45.944;12.480;2022-12-04T00:41:20;0.70;;;0.50;;
40997;SDS011;26740;45.944;12.480;2022-12-04T00:43:48;0.75;;;0.30;;
40997;SDS011;26740;45.944;12.480;2022-12-04T00:46:14;4.43;;;0.70;;
40997;SDS011;26740;45.944;12.480;2022-12-04T00:48:40;1.92;;;0.40;;
40997;SDS011;26740;45.944;12.480;2022-12-04T00:51:13;0.90;;;0.70;;
40997;SDS011;26740;45.944;12.480;2022-12-04T00:53:42;0.85;;;0.50;;
40997;SDS011;26740;45.944;12.480;2022-12-04T00:56:10;1.25;;;0.50;;
40997;SDS011;26740;45.944;12.480;2022-12-04T00:58:38;1.03;;;0.60;;
40997;SDS011;26740;45.944;12.480;2022-12-04T01:01:08;0.90;;;0.50;;
40997;SDS011;26740;45.944;12.480;2022-12-04T01:03:38;0.80;;;0.47;;
40997;SDS011;26740;45.944;12.480;2022-12-04T01:06:04;2.22;;;0.70;;
40997;SDS011;26740;45.944;12.480;2022-12-04T01:08:31;1.80;;;0.50;;
40997;SDS011;26740;45.944;12.480;2022-12-04T01:10:57;2.05;;;0.68;;
40997;SDS011;26740;45.944;12.480;2022-12-04T01:13:22;1.08;;;0.70;;
40997;SDS011;26740;45.944;12.480;2022-12-04T01:15:49;1.00;;;0.55;;
40997;SDS011;26740;45.944;12.480;2022-12-04T01:18:15;1.85;;;1.15;;
40997;SDS011;26740;45.944;12.480;2022-12-04T01:20:49;1.23;;;0.68;;
40997;SDS011;26740;45.944;12.480;2022-12-04T01:23:17;1.33;;;0.98;;
40997;SDS011;26740;45.944;12.480;2022-12-04T01:25:52;1.77;;;0.85;;
40997;SDS011;26740;45.944;12.480;2022-12-04T01:28:18;2.35;;;1.13;;
40997;SDS011;26740;45.944;12.480;2022-12-04T01:30:44;2.60;;;1.02;;
40997;SDS011;26740;45.944;12.480;2022-12-04T01:33:09;1.88;;;0.80;;
40997;SDS011;26740;45.944;12.480;2022-12-04T01:35:35;1.63;;;1.00;;
40997;SDS011;26740;45.944;12.480;2022-12-04T01:38:01;2.05;;;0.77;;
40997;SDS011;26740;45.944;12.480;2022-12-04T01:40:26;1.42;;;0.70;;
40997;SDS011;26740;45.944;12.480;2022-12-04T01:42:52;0.88;;;0.65;;
40997;SDS011;26740;45.944;12.480;2022-12-04T01:47:56;5.30;;;0.73;;
40997;SDS011;26740;45.944;12.480;2022-12-04T01:50:32;1.67;;;0.82;;
40997;SDS011;26740;45.944;12.480;2022-12-04T01:52:58;0.90;;;0.43;;
40997;SDS011;26740;45.944;12.480;2022-12-04T01:55:24;2.20;;;0.50;;
40997;SDS011;26740;45.944;12.480;2022-12-04T01:57:50;1.15;;;0.80;;
40997;SDS011;26740;45.944;12.480;2022-12-04T02:00:15;2.15;;;0.60;;
40997;SDS011;26740;45.944;12.480;2022-12-04T02:02:42;1.20;;;0.40;;
40997;SDS011;26740;45.944;12.480;2022-12-04T02:05:12;0.80;;;0.60;;
40997;SDS011;26740;45.944;12.480;2022-12-04T02:07:40;1.02;;;0.50;;
40997;SDS011;26740;45.944;12.480;2022-12-04T02:10:07;3.67;;;1.02;;
40997;SDS011;26740;45.944;12.480;2022-12-04T02:12:46;8.23;;;1.95;;
40997;SDS011;26740;45.944;12.480;2022-12-04T02:15:38;1.80;;;0.95;;
40997;SDS011;26740;45.944;12.480;2022-12-04T02:18:09;2.00;;;0.93;;
40997;SDS011;26740;45.944;12.480;2022-12-04T02:20:39;1.83;;;0.90;;
40997;SDS011;26740;45.944;12.480;2022-12-04T02:23:19;1.05;;;0.55;;
40997;SDS011;26740;45.944;12.480;2022-12-04T02:31:57;1.45;;;0.57;;
40997;SDS011;26740;45.944;12.480;2022-12-04T02:37:18;3.72;;;0.80;;
40997;SDS011;26740;45.944;12.480;2022-12-04T02:39:55;3.20;;;0.70;;
40997;SDS011;26740;45.944;12.480;2022-12-04T02:43:00;1.60;;;0.68;;
40997;SDS011;26740;45.944;12.480;2022-12-04T02:45:23;1.65;;;0.70;;
40997;SDS011;26740;45.944;12.480;2022-12-04T02:48:17;1.00;;;0.65;;
40997;SDS011;26740;45.944;12.480;2022-12-04T02:50:45;1.40;;;0.90;;
40997;SDS011;26740;45.944;12.480;2022-12-04T02:53:17;1.70;;;0.75;;
40997;SDS011;26740;45.944;12.480;2022-12-04T02:55:49;1.00;;;0.77;;
40997;SDS011;26740;45.944;12.480;2022-12-04T02:58:39;1.15;;;0.52;;
40997;SDS011;26740;45.944;12.480;2022-12-04T03:01:12;1.92;;;0.70;;
40997;SDS011;26740;45.944;12.480;2022-12-04T03:03:45;1.92;;;0.90;;
40997;SDS011;26740;45.944;12.480;2022-12-04T03:06:23;2.25;;;0.57;;
40997;SDS011;26740;45.944;12.480;2022-12-04T03:08:54;1.58;;;0.88;;
40997;SDS011;26740;45.944;12.480;2022-12-04T03:11:27;1.42;;;0.80;;
40997;SDS011;26740;45.944;12.480;2022-12-04T03:14:00;2.50;;;0.80;;
40997;SDS011;26740;45.944;12.480;2022-12-04T03:16:40;1.95;;;0.82;;
40997;SDS011;26740;45.944;12.480;2022-12-04T03:19:17;1.90;;;1.25;;
40997;SDS011;26740;45.944;12.480;2022-12-04T03:21:51;1.45;;;0.85;;
40997;SDS011;26740;45.944;12.480;2022-12-04T03:24:26;1.15;;;0.93;;
40997;SDS011;26740;45.944;12.480;2022-12-04T03:29:35;2.22;;;1.27;;
40997;SDS011;26740;45.944;12.480;2022-12-04T03:32:46;2.05;;;0.85;;
40997;SDS011;26740;45.944;12.480;2022-12-04T03:40:48;1.88;;;0.80;;
40997;SDS011;26740;45.944;12.480;2022-12-04T03:43:23;1.23;;;0.65;;
40997;SDS011;26740;45.944;12.480;2022-12-04T03:53:48;1.00;;;0.60;;
40997;SDS011;26740;45.944;12.480;2022-12-04T03:56:20;1.00;;;0.60;;
40997;SDS011;26740;45.944;12.480;2022-12-04T03:59:02;0.90;;;0.40;;
40997;SDS011;26740;45.944;12.480;2022-12-04T04:01:34;0.60;;;0.50;;
40997;SDS011;26740;45.944;12.480;2022-12-04T04:04:09;0.52;;;0.43;;
40997;SDS011;26740;45.944;12.480;2022-12-04T04:06:39;0.60;;;0.40;;
40997;SDS011;26740;45.944;12.480;2022-12-04T04:09:16;2.58;;;0.65;;
40997;SDS011;26740;45.944;12.480;2022-12-04T04:12:09;1.27;;;0.30;;
40997;SDS011;26740;45.944;12.480;2022-12-04T04:14:41;0.60;;;0.30;;
40997;SDS011;26740;45.944;12.480;2022-12-04T04:17:33;0.35;;;0.20;;
40997;SDS011;26740;45.944;12.480;2022-12-04T04:20:22;0.55;;;0.30;;
40997;SDS011;26740;45.944;12.480;2022-12-04T04:23:13;1.67;;;1.10;;
40997;SDS011;26740;45.944;12.480;2022-12-04T04:26:00;1.33;;;0.40;;
40997;SDS011;26740;45.944;12.480;2022-12-04T04:28:32;1.35;;;0.30;;
40997;SDS011;26740;45.944;12.480;2022-12-04T04:31:21;1.70;;;0.30;;
40997;SDS011;26740;45.944;12.480;2022-12-04T04:39:30;0.40;;;0.20;;
40997;SDS011;26740;45.944;12.480;2022-12-04T04:42:02;0.90;;;0.50;;
40997;SDS011;26740;45.944;12.480;2022-12-04T04:44:40;2.40;;;0.85;;
40997;SDS011;26740;45.944;12.480;2022-12-04T04:47:15;0.75;;;0.45;;
40997;SDS011;26740;45.944;12.480;2022-12-04T04:49:46;0.77;;;0.45;;
40997;SDS011;26740;45.944;12.480;2022-12-04T04:52:16;1.35;;;0.30;;
40997;SDS011;26740;45.944;12.480;2022-12-04T04:54:46;0.75;;;0.40;;
40997;SDS011;26740;45.944;12.480;2022-12-04T04:57:12;0.52;;;0.35;;
40997;SDS011;26740;45.944;12.480;2022-12-04T04:59:38;1.00;;;0.60;;
40997;SDS011;26740;45.944;12.480;2022-12-04T05:02:03;0.70;;;0.52;;
40997;SDS011;26740;45.944;12.480;2022-12-04T05:04:29;2.50;;;0.38;;
40997;SDS011;26740;45.944;12.480;2022-12-04T05:06:54;2.70;;;0.45;;
40997;SDS011;26740;45.944;12.480;2022-12-04T05:09:20;1.48;;;0.60;;
40997;SDS011;26740;45.944;12.480;2022-12-04T05:11:45;1.65;;;0.60;;
40997;SDS011;26740;45.944;12.480;2022-12-04T05:14:11;1.55;;;0.63;;
40997;SDS011;26740;45.944;12.480;2022-12-04T05:16:37;1.10;;;0.50;;
40997;SDS011;26740;45.944;12.480;2022-12-04T05:19:05;1.30;;;0.43;;
40997;SDS011;26740;45.944;12.480;2022-12-04T05:21:48;1.67;;;0.60;;
40997;SDS011;26740;45.944;12.480;2022-12-04T05:24:14;4.65;;;0.75;;
40997;SDS011;26740;45.944;12.480;2022-12-04T05:26:39;0.40;;;0.28;;
40997;SDS011;26740;45.944;12.480;2022-12-04T05:29:05;3.05;;;0.57;;
40997;SDS011;26740;45.944;12.480;2022-12-04T05:31:31;1.35;;;0.63;;
40997;SDS011;26740;45.944;12.480;2022-12-04T05:33:56;1.33;;;0.60;;
40997;SDS011;26740;45.944;12.480;2022-12-04T05:36:22;3.83;;;0.70;;
40997;SDS011;26740;45.944;12.480;2022-12-04T05:38:48;1.00;;;0.47;;
40997;SDS011;26740;45.944;12.480;2022-12-04T05:41:13;1.13;;;0.60;;
40997;SDS011;26740;45.944;12.480;2022-12-04T05:43:39;0.93;;;0.43;;
40997;SDS011;26740;45.944;12.480;2022-12-04T05:46:05;2.05;;;1.00;;
40997;SDS011;26740;45.944;12.480;2022-12-04T05:48:33;1.02;;;0.43;;
40997;SDS011;26740;45.944;12.480;2022-12-04T05:50:59;1.77;;;0.50;;
40997;SDS011;26740;45.944;12.480;2022-12-04T05:53:29;3.10;;;0.82;;
40997;SDS011;26740;45.944;12.480;2022-12-04T05:55:58;3.03;;;0.60;;
40997;SDS011;26740;45.944;12.480;2022-12-04T05:58:25;2.47;;;1.15;;
40997;SDS011;26740;45.944;12.480;2022-12-04T06:00:52;0.80;;;0.47;;
40997;SDS011;26740;45.944;12.480;2022-12-04T06:03:17;3.42;;;1.00;;
40997;SDS011;26740;45.944;12.480;2022-12-04T06:05:43;2.45;;;0.60;;
40997;SDS011;26740;45.944;12.480;2022-12-04T06:08:09;3.10;;;0.45;;
40997;SDS011;26740;45.944;12.480;2022-12-04T06:10:34;1.02;;;0.70;;
40997;SDS011;26740;45.944;12.480;2022-12-04T06:13:00;1.10;;;0.60;;
40997;SDS011;26740;45.944;12.480;2022-12-04T06:15:25;5.65;;;0.85;;
40997;SDS011;26740;45.944;12.480;2022-12-04T06:17:51;0.80;;;0.50;;
40997;SDS011;26740;45.944;12.480;2022-12-04T06:20:17;1.20;;;0.73;;
40997;SDS011;26740;45.944;12.480;2022-12-04T06:22:42;1.83;;;0.73;;
40997;SDS011;26740;45.944;12.480;2022-12-04T06:25:08;1.27;;;0.65;;
40997;SDS011;26740;45.944;12.480;2022-12-04T06:27:34;0.50;;;0.30;;
40997;SDS011;26740;45.944;12.480;2022-12-04T06:30:00;2.15;;;0.75;;
40997;SDS011;26740;45.944;12.480;2022-12-04T06:32:27;0.82;;;0.45;;
40997;SDS011;26740;45.944;12.480;2022-12-04T06:34:53;0.40;;;0.40;;
40997;SDS011;26740;45.944;12.480;2022-12-04T06:37:19;2.55;;;0.50;;
40997;SDS011;26740;45.944;12.480;2022-12-04T06:39:45;0.63;;;0.35;;
40997;SDS011;26740;45.944;12.480;2022-12-04T06:42:11;3.60;;;0.90;;
40997;SDS011;26740;45.944;12.480;2022-12-04T06:44:37;3.08;;;0.82;;
40997;SDS011;26740;45.944;12.480;2022-12-04T06:47:02;2.17;;;1.02;;
40997;SDS011;26740;45.944;12.480;2022-12-04T06:49:29;1.42;;;0.60;;
40997;SDS011;26740;45.944;12.480;2022-12-04T06:51:54;1.30;;;0.93;;
40997;SDS011;26740;45.944;12.480;2022-12-04T06:54:21;1.65;;;1.02;;
40997;SDS011;26740;45.944;12.480;2022-12-04T06:56:47;3.42;;;0.68;;
40997;SDS011;26740;45.944;12.480;2022-12-04T06:59:13;1.42;;;0.50;;
40997;SDS011;26740;45.944;12.480;2022-12-04T07:01:39;1.10;;;0.52;;
40997;SDS011;26740;45.944;12.480;2022-12-04T07:04:05;2.78;;;0.80;;
40997;SDS011;26740;45.944;12.480;2022-12-04T07:06:31;2.38;;;0.90;;
40997;SDS011;26740;45.944;12.480;2022-12-04T07:11:32;0.95;;;0.40;;
40997;SDS011;26740;45.944;12.480;2022-12-04T07:13:58;1.23;;;0.60;;
40997;SDS011;26740;45.944;12.480;2022-12-04T07:16:24;1.42;;;0.60;;
40997;SDS011;26740;45.944;12.480;2022-12-04T07:18:51;1.83;;;0.60;;
40997;SDS011;26740;45.944;12.480;2022-12-04T07:21:24;1.05;;;0.50;;
40997;SDS011;26740;45.944;12.480;2022-12-04T07:23:55;13.52;;;1.02;;
40997;SDS011;26740;45.944;12.480;2022-12-04T07:26:23;1.00;;;0.88;;
40997;SDS011;26740;45.944;12.480;2022-12-04T07:28:50;0.90;;;0.35;;
40997;SDS011;26740;45.944;12.480;2022-12-04T07:31:18;1.38;;;0.63;;
40997;SDS011;26740;45.944;12.480;2022-12-04T07:33:46;1.55;;;0.60;;
40997;SDS011;26740;45.944;12.480;2022-12-04T07:36:13;1.27;;;0.52;;
40997;SDS011;26740;45.944;12.480;2022-12-04T07:38:40;4.53;;;0.82;;
40997;SDS011;26740;45.944;12.480;2022-12-04T07:41:06;2.00;;;1.50;;
40997;SDS011;26740;45.944;12.480;2022-12-04T07:43:33;4.72;;;1.02;;
40997;SDS011;26740;45.944;12.480;2022-12-04T07:46:03;3.53;;;0.93;;
40997;SDS011;26740;45.944;12.480;2022-12-04T07:48:32;1.45;;;0.60;;
40997;SDS011;26740;45.944;12.480;2022-12-04T07:51:05;4.88;;;1.40;;
40997;SDS011;26740;45.944;12.480;2022-12-04T07:53:32;1.73;;;0.63;;
40997;SDS011;26740;45.944;12.480;2022-12-04T07:55:59;4.25;;;1.55;;
40997;SDS011;26740;45.944;12.480;2022-12-04T07:58:24;3.55;;;0.65;;
40997;SDS011;26740;45.944;12.480;2022-12-04T08:00:50;1.65;;;0.70;;
40997;SDS011;26740;45.944;12.480;2022-12-04T08:03:16;0.65;;;0.47;;
40997;SDS011;26740;45.944;12.480;2022-12-04T08:05:41;1.05;;;0.43;;
40997;SDS011;26740;45.944;12.480;2022-12-04T08:08:07;0.63;;;0.40;;
40997;SDS011;26740;45.944;12.480;2022-12-04T08:10:33;0.88;;;0.38;;
40997;SDS011;26740;45.944;12.480;2022-12-04T08:12:58;2.15;;;0.50;;
40997;SDS011;26740;45.944;12.480;2022-12-04T08:15:24;1.17;;;0.70;;
40997;SDS011;26740;45.944;12.480;2022-12-04T08:17:49;2.38;;;0.70;;
40997;SDS011;26740;45.944;12.480;2022-12-04T08:20:15;1.35;;;0.82;;
40997;SDS011;26740;45.944;12.480;2022-12-04T08:22:41;3.95;;;1.10;;
40997;SDS011;26740;45.944;12.480;2022-12-04T08:25:06;1.00;;;0.80;;
40997;SDS011;26740;45.944;12.480;2022-12-04T08:27:33;4.85;;;1.08;;
40997;SDS011;26740;45.944;12.480;2022-12-04T08:29:58;3.20;;;1.00;;
40997;SDS011;26740;45.944;12.480;2022-12-04T08:32:24;2.65;;;1.65;;
40997;SDS011;26740;45.944;12.480;2022-12-04T08:34:52;3.13;;;1.25;;
40997;SDS011;26740;45.944;12.480;2022-12-04T08:37:18;2.35;;;1.10;;
40997;SDS011;26740;45.944;12.480;2022-12-04T08:39:43;1.80;;;1.00;;
40997;SDS011;26740;45.944;12.480;2022-12-04T08:42:09;1.70;;;1.02;;
40997;SDS011;26740;45.944;12.480;2022-12-04T08:44:34;2.78;;;1.40;;
40997;SDS011;26740;45.944;12.480;2022-12-04T08:47:00;2.60;;;1.50;;
40997;SDS011;26740;45.944;12.480;2022-12-04T08:49:26;2.08;;;1.40;;
40997;SDS011;26740;45.944;12.480;2022-12-04T08:51:51;1.65;;;1.13;;
40997;SDS011;26740;45.944;12.480;2022-12-04T08:54:17;4.90;;;1.38;;
40997;SDS011;26740;45.944;12.480;2022-12-04T08:56:42;3.13;;;1.75;;
40997;SDS011;26740;45.944;12.480;2022-12-04T08:59:08;1.90;;;1.50;;
40997;SDS011;26740;45.944;12.480;2022-12-04T09:01:37;5.93;;;1.42;;
40997;SDS011;26740;45.944;12.480;2022-12-04T09:04:03;6.70;;;1.85;;
40997;SDS011;26740;45.944;12.480;2022-12-04T09:06:29;5.75;;;2.10;;
40997;SDS011;26740;45.944;12.480;2022-12-04T09:08:55;3.33;;;1.52;;
40997;SDS011;26740;45.944;12.480;2022-12-04T09:11:22;3.92;;;1.33;;
40997;SDS011;26740;45.944;12.480;2022-12-04T09:13:49;3.05;;;1.95;;
40997;SDS011;26740;45.944;12.480;2022-12-04T09:16:20;5.40;;;1.55;;
40997;SDS011;26740;45.944;12.480;2022-12-04T09:18:48;7.97;;;1.95;;
40997;SDS011;26740;45.944;12.480;2022-12-04T09:21:15;1.80;;;1.17;;
40997;SDS011;26740;45.944;12.480;2022-12-04T09:23:43;3.38;;;1.65;;
40997;SDS011;26740;45.944;12.480;2022-12-04T09:26:25;8.73;;;2.78;;
40997;SDS011;26740;45.944;12.480;2022-12-04T09:28:53;4.45;;;1.67;;
40997;SDS011;26740;45.944;12.480;2022-12-04T09:31:20;6.25;;;2.50;;
40997;SDS011;26740;45.944;12.480;2022-12-04T09:33:47;3.05;;;1.83;;
40997;SDS011;26740;45.944;12.480;2022-12-04T09:36:13;7.57;;;3.00;;
40997;SDS011;26740;45.944;12.480;2022-12-04T09:38:43;6.30;;;2.28;;
40997;SDS011;26740;45.944;12.480;2022-12-04T09:46:43;5.75;;;2.63;;
40997;SDS011;26740;45.944;12.480;2022-12-04T09:49:16;5.32;;;2.38;;
40997;SDS011;26740;45.944;12.480;2022-12-04T09:51:58;3.15;;;2.17;;
40997;SDS011;26740;45.944;12.480;2022-12-04T09:54:32;7.53;;;2.25;;
40997;SDS011;26740;45.944;12.480;2022-12-04T09:57:09;4.32;;;2.05;;
40997;SDS011;26740;45.944;12.480;2022-12-04T09:59:39;3.20;;;2.17;;
40997;SDS011;26740;45.944;12.480;2022-12-04T10:04:56;4.82;;;2.50;;
40997;SDS011;26740;45.944;12.480;2022-12-04T10:07:24;3.65;;;2.10;;
40997;SDS011;26740;45.944;12.480;2022-12-04T10:13:00;2.92;;;2.25;;
40997;SDS011;26740;45.944;12.480;2022-12-04T10:15:43;4.72;;;2.22;;
40997;SDS011;26740;45.944;12.480;2022-12-04T10:26:33;4.28;;;1.65;;
40997;SDS011;26740;45.944;12.480;2022-12-04T10:29:07;4.22;;;1.80;;
40997;SDS011;26740;45.944;12.480;2022-12-04T10:31:42;2.70;;;1.65;;
40997;SDS011;26740;45.944;12.480;2022-12-04T10:34:20;2.88;;;1.67;;
40997;SDS011;26740;45.944;12.480;2022-12-04T10:36:51;2.20;;;1.55;;
40997;SDS011;26740;45.944;12.480;2022-12-04T10:39:25;3.05;;;2.28;;
40997;SDS011;26740;45.944;12.480;2022-12-04T10:42:16;7.07;;;2.58;;
40997;SDS011;26740;45.944;12.480;2022-12-04T10:44:51;3.70;;;2.10;;
40997;SDS011;26740;45.944;12.480;2022-12-04T10:47:17;4.55;;;2.78;;
40997;SDS011;26740;45.944;12.480;2022-12-04T10:49:46;3.30;;;2.25;;
40997;SDS011;26740;45.944;12.480;2022-12-04T10:52:13;7.65;;;3.08;;
40997;SDS011;26740;45.944;12.480;2022-12-04T10:54:42;6.95;;;3.25;;
40997;SDS011;26740;45.944;12.480;2022-12-04T10:57:12;6.65;;;2.80;;
40997;SDS011;26740;45.944;12.480;2022-12-04T10:59:47;5.72;;;2.83;;
40997;SDS011;26740;45.944;12.480;2022-12-04T11:05:07;3.38;;;3.05;;
40997;SDS011;26740;45.944;12.480;2022-12-04T11:07:54;4.28;;;2.47;;
40997;SDS011;26740;45.944;12.480;2022-12-04T11:13:13;3.85;;;2.15;;
40997;SDS011;26740;45.944;12.480;2022-12-04T11:15:45;4.00;;;2.65;;
40997;SDS011;26740;45.944;12.480;2022-12-04T11:18:20;4.60;;;2.33;;
40997;SDS011;26740;45.944;12.480;2022-12-04T11:21:30;5.53;;;3.55;;
40997;SDS011;26740;45.944;12.480;2022-12-04T11:23:43;5.10;;;2.97;;
40997;SDS011;26740;45.944;12.480;2022-12-04T11:26:12;5.15;;;3.10;;
40997;SDS011;26740;45.944;12.480;2022-12-04T11:28:39;7.05;;;2.90;;
40997;SDS011;26740;45.944;12.480;2022-12-04T11:31:17;6.43;;;2.35;;
40997;SDS011;26740;45.944;12.480;2022-12-04T11:36:24;4.25;;;2.00;;
40997;SDS011;26740;45.944;12.480;2022-12-04T11:41:35;2.78;;;2.35;;
40997;SDS011;26740;45.944;12.480;2022-12-04T11:44:04;3.63;;;2.00;;
40997;SDS011;26740;45.944;12.480;2022-12-04T11:46:31;3.15;;;1.83;;
40997;SDS011;26740;45.944;12.480;2022-12-04T11:48:58;5.32;;;2.25;;
40997;SDS011;26740;45.944;12.480;2022-12-04T11:51:37;2.70;;;1.85;;
40997;SDS011;26740;45.944;12.480;2022-12-04T11:56:55;2.55;;;1.98;;
40997;SDS011;26740;45.944;12.480;2022-12-04T11:59:46;5.32;;;2.88;;
40997;SDS011;26740;45.944;12.480;2022-12-04T12:02:29;8.05;;;2.65;;
40997;SDS011;26740;45.944;12.480;2022-12-04T12:08:13;2.90;;;2.10;;
40997;SDS011;26740;45.944;12.480;2022-12-04T12:21:23;4.28;;;3.05;;
40997;SDS011;26740;45.944;12.480;2022-12-04T12:26:50;3.00;;;2.40;;
40997;SDS011;26740;45.944;12.480;2022-12-04T12:35:20;4.38;;;1.40;;
40997;SDS011;26740;45.944;12.480;2022-12-04T12:37:52;3.50;;;1.70;;
40997;SDS011;26740;45.944;12.480;2022-12-04T12:43:15;2.40;;;2.00;;
40997;SDS011;26740;45.944;12.480;2022-12-04T12:45:51;3.05;;;1.55;;
40997;SDS011;26740;45.944;12.480;2022-12-04T12:48:21;5.35;;;2.50;;
40997;SDS011;26740;45.944;12.480;2022-12-04T12:50:50;3.55;;;2.95;;
40997;SDS011;26740;45.944;12.480;2022-12-04T12:53:22;4.40;;;2.58;;
40997;SDS011;26740;45.944;12.480;2022-12-04T12:55:54;2.83;;;1.70;;
40997;SDS011;26740;45.944;12.480;2022-12-04T13:03:39;2.63;;;1.67;;
40997;SDS011;26740;45.944;12.480;2022-12-04T13:06:14;4.40;;;2.13;;
40997;SDS011;26740;45.944;12.480;2022-12-04T13:08:47;3.33;;;2.38;;
40997;SDS011;26740;45.944;12.480;2022-12-04T13:11:37;1.95;;;1.50;;
40997;SDS011;26740;45.944;12.480;2022-12-04T13:14:04;3.33;;;1.52;;
40997;SDS011;26740;45.944;12.480;2022-12-04T13:19:03;3.85;;;2.03;;
40997;SDS011;26740;45.944;12.480;2022-12-04T13:21:40;2.63;;;1.80;;
40997;SDS011;26740;45.944;12.480;2022-12-04T13:30:23;2.65;;;1.50;;
40997;SDS011;26740;45.944;12.480;2022-12-04T13:41:19;2.88;;;1.55;;
40997;SDS011;26740;45.944;12.480;2022-12-04T13:43:52;1.73;;;1.08;;
40997;SDS011;26740;45.944;12.480;2022-12-04T13:46:32;2.97;;;1.50;;
40997;SDS011;26740;45.944;12.480;2022-12-04T13:49:08;2.97;;;1.73;;
40997;SDS011;26740;45.944;12.480;2022-12-04T13:51:54;3.90;;;1.58;;
40997;SDS011;26740;45.944;12.480;2022-12-04T13:54:23;5.30;;;2.25;;
40997;SDS011;26740;45.944;12.480;2022-12-04T13:56:52;1.90;;;1.40;;
40997;SDS011;26740;45.944;12.480;2022-12-04T14:01:52;2.13;;;1.35;;
40997;SDS011;26740;45.944;12.480;2022-12-04T14:04:27;2.58;;;1.33;;
40997;SDS011;26740;45.944;12.480;2022-12-04T14:06:55;3.40;;;1.90;;
40997;SDS011;26740;45.944;12.480;2022-12-04T14:09:37;5.75;;;2.17;;
40997;SDS011;26740;45.944;12.480;2022-12-04T14:12:07;3.63;;;1.80;;
40997;SDS011;26740;45.944;12.480;2022-12-04T14:17:03;4.05;;;1.85;;
40997;SDS011;26740;45.944;12.480;2022-12-04T14:19:31;4.45;;;1.73;;
40997;SDS011;26740;45.944;12.480;2022-12-04T14:21:59;2.88;;;1.73;;
40997;SDS011;26740;45.944;12.480;2022-12-04T14:24:36;1.88;;;1.67;;
40997;SDS011;26740;45.944;12.480;2022-12-04T14:32:53;6.32;;;2.95;;
40997;SDS011;26740;45.944;12.480;2022-12-04T14:35:26;5.90;;;3.40;;
40997;SDS011;26740;45.944;12.480;2022-12-04T14:37:57;5.85;;;3.42;;
40997;SDS011;26740;45.944;12.480;2022-12-04T14:40:48;6.43;;;3.67;;
40997;SDS011;26740;45.944;12.480;2022-12-04T14:43:22;3.38;;;2.40;;
40997;SDS011;26740;45.944;12.480;2022-12-04T14:45:59;3.60;;;2.65;;
40997;SDS011;26740;45.944;12.480;2022-12-04T14:51:36;6.95;;;3.05;;
40997;SDS011;26740;45.944;12.480;2022-12-04T14:54:12;3.80;;;2.10;;
40997;SDS011;26740;45.944;12.480;2022-12-04T14:59:46;2.25;;;1.83;;
40997;SDS011;26740;45.944;12.480;2022-12-04T15:02:17;4.38;;;2.22;;
40997;SDS011;26740;45.944;12.480;2022-12-04T15:04:46;5.97;;;3.35;;
40997;SDS011;26740;45.944;12.480;2022-12-04T15:07:18;5.25;;;3.60;;
40997;SDS011;26740;45.944;12.480;2022-12-04T15:09:49;4.20;;;1.90;;
40997;SDS011;26740;45.944;12.480;2022-12-04T15:12:43;5.20;;;2.42;;
40997;SDS011;26740;45.944;12.480;2022-12-04T15:25:59;5.05;;;2.38;;
40997;SDS011;26740;45.944;12.480;2022-12-04T15:28:31;9.88;;;3.67;;
40997;SDS011;26740;45.944;12.480;2022-12-04T15:30:59;6.10;;;3.47;;
40997;SDS011;26740;45.944;12.480;2022-12-04T15:33:29;5.55;;;3.55;;
40997;SDS011;26740;45.944;12.480;2022-12-04T15:35:59;6.53;;;3.72;;
40997;SDS011;26740;45.944;12.480;2022-12-04T15:38:33;5.55;;;3.45;;
40997;SDS011;26740;45.944;12.480;2022-12-04T15:40:59;5.05;;;2.67;;
40997;SDS011;26740;45.944;12.480;2022-12-04T15:43:30;11.25;;;3.97;;
40997;SDS011;26740;45.944;12.480;2022-12-04T15:46:10;4.80;;;3.15;;
40997;SDS011;26740;45.944;12.480;2022-12-04T15:48:37;5.95;;;3.10;;
40997;SDS011;26740;45.944;12.480;2022-12-04T15:51:04;3.47;;;1.77;;
40997;SDS011;26740;45.944;12.480;2022-12-04T15:53:35;5.00;;;2.63;;
40997;SDS011;26740;45.944;12.480;2022-12-04T15:56:04;3.13;;;1.67;;
40997;SDS011;26740;45.944;12.480;2022-12-04T16:06:46;3.20;;;2.28;;
40997;SDS011;26740;45.944;12.480;2022-12-04T16:16:33;6.68;;;4.50;;
40997;SDS011;26740;45.944;12.480;2022-12-04T16:19:07;6.55;;;4.32;;
40997;SDS011;26740;45.944;12.480;2022-12-04T16:21:36;4.63;;;2.60;;
40997;SDS011;26740;45.944;12.480;2022-12-04T16:24:02;5.13;;;1.60;;
40997;SDS011;26740;45.944;12.480;2022-12-04T16:26:29;1.80;;;1.20;;
40997;SDS011;26740;45.944;12.480;2022-12-04T16:28:55;1.52;;;1.25;;
40997;SDS011;26740;45.944;12.480;2022-12-04T16:31:21;1.50;;;1.23;;
40997;SDS011;26740;45.944;12.480;2022-12-04T16:33:48;3.05;;;1.63;;
40997;SDS011;26740;45.944;12.480;2022-12-04T16:36:14;5.00;;;2.40;;
40997;SDS011;26740;45.944;12.480;2022-12-04T16:38:39;4.45;;;3.03;;
40997;SDS011;26740;45.944;12.480;2022-12-04T16:41:05;6.85;;;3.33;;
40997;SDS011;26740;45.944;12.480;2022-12-04T16:43:37;6.38;;;3.63;;
40997;SDS011;26740;45.944;12.480;2022-12-04T16:46:03;7.45;;;4.82;;
40997;SDS011;26740;45.944;12.480;2022-12-04T16:48:28;7.57;;;4.28;;
40997;SDS011;26740;45.944;12.480;2022-12-04T16:50:58;7.93;;;3.97;;
40997;SDS011;26740;45.944;12.480;2022-12-04T16:53:24;5.25;;;3.80;;
40997;SDS011;26740;45.944;12.480;2022-12-04T16:55:51;6.43;;;4.35;;
40997;SDS011;26740;45.944;12.480;2022-12-04T16:58:17;4.10;;;3.20;;
40997;SDS011;26740;45.944;12.480;2022-12-04T17:00:45;3.20;;;2.28;;
40997;SDS011;26740;45.944;12.480;2022-12-04T17:03:17;4.28;;;2.60;;
40997;SDS011;26740;45.944;12.480;2022-12-04T17:05:47;2.30;;;1.63;;
40997;SDS011;26740;45.944;12.480;2022-12-04T17:08:13;4.88;;;2.90;;
40997;SDS011;26740;45.944;12.480;2022-12-04T17:10:39;5.22;;;2.95;;
40997;SDS011;26740;45.944;12.480;2022-12-04T17:13:04;6.30;;;3.50;;
40997;SDS011;26740;45.944;12.480;2022-12-04T17:15:30;4.80;;;2.78;;
40997;SDS011;26740;45.944;12.480;2022-12-04T17:17:55;3.50;;;3.10;;
40997;SDS011;26740;45.944;12.480;2022-12-04T17:20:21;7.25;;;3.17;;
40997;SDS011;26740;45.944;12.480;2022-12-04T17:22:47;7.80;;;3.78;;
40997;SDS011;26740;45.944;12.480;2022-12-04T17:25:14;6.78;;;3.95;;
40997;SDS011;26740;45.944;12.480;2022-12-04T17:27:40;4.05;;;3.33;;
40997;SDS011;26740;45.944;12.480;2022-12-04T17:30:07;5.80;;;3.85;;
40997;SDS011;26740;45.944;12.480;2022-12-04T17:32:37;4.15;;;2.72;;
40997;SDS011;26740;45.944;12.480;2022-12-04T17:35:03;4.07;;;2.67;;